Time;durP1;ratioP1;P1;durP2;ratioP2;P2;SDS_P1;SDS_P2;PMS_P1;PMS_P2;Temp;Humidity;BMP_temperature;BMP_pressure;BME280_temperature;BME280_humidity;BME280_pressure;Samples;Min_cycle;Max_cycle;Signal;HPM_P1;HPM_P2
2023/04/06 00:01:56;;;;;;;29.07;12.87;;;9.70;99.90;;;;;;7287287;19;20197;-79
2023/04/06 00:04:22;;;;;;;25.00;13.23;;;9.70;99.90;;;;;;7295302;19;20707;-78
2023/04/06 00:06:48;;;;;;;25.77;11.60;;;9.60;99.90;;;;;;7305952;19;20193;-79
2023/04/06 00:09:13;;;;;;;24.80;13.07;;;9.70;99.90;;;;;;7286713;19;20189;-79
2023/04/06 00:11:39;;;;;;;28.53;12.93;;;9.70;99.90;;;;;;7285746;19;20568;-79
2023/04/06 00:14:05;;;;;;;25.50;12.70;;;9.80;99.90;;;;;;7287535;19;20189;-79
2023/04/06 00:16:30;;;;;;;25.07;12.47;;;9.90;99.90;;;;;;7285086;19;20298;-79
2023/04/06 00:18:56;;;;;;;23.10;11.70;;;9.90;99.90;;;;;;7284040;19;20201;-79
2023/04/06 00:21:22;;;;;;;25.23;12.83;;;9.90;99.90;;;;;;7348283;19;20231;-78
2023/04/06 00:23:48;;;;;;;25.73;12.23;;;9.90;99.90;;;;;;7391999;19;20172;-79
2023/04/06 00:26:14;;;;;;;22.53;11.90;;;9.90;99.90;;;;;;7391026;19;20152;-79
2023/04/06 00:28:45;;;;;;;27.97;13.17;;;9.80;99.90;;;;;;7392535;19;20727;-79
2023/04/06 00:31:11;;;;;;;27.10;12.90;;;9.70;99.90;;;;;;7370235;19;20193;-79
2023/04/06 00:33:36;;;;;;;26.50;12.73;;;9.70;99.90;;;;;;7388865;19;20156;-79
2023/04/06 00:36:02;;;;;;;25.47;12.23;;;9.80;99.90;;;;;;7325950;19;20205;-79
2023/04/06 00:38:28;;;;;;;24.67;13.37;;;9.70;99.90;;;;;;7388920;19;20173;-79
2023/04/06 00:40:54;;;;;;;23.33;12.33;;;9.70;99.90;;;;;;7347011;19;20190;-78
2023/04/06 00:43:20;;;;;;;23.67;12.50;;;9.70;99.90;;;;;;7308205;19;20723;-79
2023/04/06 00:45:45;;;;;;;25.53;11.60;;;9.60;99.90;;;;;;7284319;19;20185;-79
2023/04/06 00:48:11;;;;;;;24.97;12.50;;;9.50;99.90;;;;;;7287105;19;20318;-79
2023/04/06 00:50:37;;;;;;;22.67;11.67;;;9.40;99.90;;;;;;7285467;19;20189;-79
2023/04/06 00:53:03;;;;;;;26.17;12.83;;;9.30;99.90;;;;;;7285356;19;20193;-79
2023/04/06 00:55:30;;;;;;;25.60;12.67;;;9.20;99.90;;;;;;7284314;19;20189;-78
2023/04/06 00:58:00;;;;;;;23.67;12.53;;;9.30;99.90;;;;;;7277659;19;20203;-78
2023/04/06 01:00:27;;;;;;;28.43;12.93;;;9.30;99.90;;;;;;7284969;19;20188;-79
2023/04/06 01:02:57;;;;;;;22.20;11.67;;;9.30;99.90;;;;;;7284759;19;20656;-79
2023/04/06 01:05:40;;;;;;;22.40;12.30;;;9.40;99.90;;;;;;7282066;19;20228;-79
2023/04/06 01:08:07;;;;;;;24.10;12.53;;;9.40;99.90;;;;;;7286143;19;20256;-79
2023/04/06 01:10:33;;;;;;;27.93;13.40;;;9.40;99.90;;;;;;7284656;19;20606;-79
2023/04/06 01:13:10;;;;;;;21.57;11.90;;;9.30;99.90;;;;;;7285044;19;20193;-79
2023/04/06 01:15:46;;;;;;;24.97;12.70;;;9.20;99.90;;;;;;7284275;19;20185;-79
2023/04/06 01:18:16;;;;;;;24.90;12.90;;;9.10;99.90;;;;;;7283867;19;20184;-79
2023/04/06 01:20:49;;;;;;;24.13;12.43;;;9.10;99.90;;;;;;7284649;19;20192;-79
2023/04/06 01:23:16;;;;;;;25.50;13.10;;;9.10;99.90;;;;;;7284576;19;20184;-79
2023/04/06 01:25:46;;;;;;;25.23;12.50;;;9.10;99.90;;;;;;7283988;19;20200;-79
2023/04/06 01:28:12;;;;;;;28.03;13.07;;;9.20;99.90;;;;;;7282817;19;20425;-79
2023/04/06 01:30:57;;;;;;;23.03;11.93;;;9.20;99.90;;;;;;7181830;19;2004568;-79
2023/04/06 01:33:38;;;;;;;24.43;11.23;;;9.20;99.90;;;;;;7281793;19;20189;-79
2023/04/06 01:36:07;;;;;;;23.00;12.20;;;9.20;99.90;;;;;;7283823;19;20691;-79
2023/04/06 01:38:34;;;;;;;23.87;12.70;;;9.30;99.90;;;;;;7282926;19;20200;-79
2023/04/06 01:41:00;;;;;;;22.87;12.50;;;9.30;99.90;;;;;;7282890;19;20195;-79
2023/04/06 01:43:31;;;;;;;24.80;12.87;;;9.30;99.90;;;;;;7284331;19;20196;-79
2023/04/06 01:46:06;;;;;;;25.40;12.80;;;9.30;99.90;;;;;;7283814;19;20205;-79
2023/04/06 01:48:38;;;;;;;23.87;12.07;;;9.20;99.90;;;;;;7283235;19;20193;-79
2023/04/06 01:51:14;;;;;;;24.67;13.00;;;9.20;99.90;;;;;;7284347;19;20694;-79
2023/04/06 01:53:49;;;;;;;23.80;11.50;;;9.10;99.90;;;;;;7283203;19;20295;-79
2023/04/06 01:56:15;;;;;;;25.50;11.70;;;9.00;99.90;;;;;;7283382;19;20656;-79
2023/04/06 01:58:46;;;;;;;23.50;12.10;;;8.90;99.90;;;;;;7296002;19;20632;-77
2023/04/06 02:01:15;;;;;;;26.30;12.53;;;8.70;99.90;;;;;;7284898;19;20207;-80
2023/04/06 02:03:54;;;;;;;23.40;12.40;;;8.90;99.90;;;;;;7262034;19;20201;-78
2023/04/06 02:06:21;;;;;;;24.43;12.73;;;9.00;99.90;;;;;;7306239;19;20192;-78
2023/04/06 02:08:47;;;;;;;22.47;11.57;;;9.00;99.90;;;;;;7283003;19;20204;-78
2023/04/06 02:11:13;;;;;;;24.33;11.93;;;9.00;99.90;;;;;;7282423;19;20185;-78
2023/04/06 02:13:45;;;;;;;23.37;11.67;;;9.00;99.90;;;;;;7283933;19;20189;-78
2023/04/06 02:16:11;;;;;;;23.80;11.93;;;9.00;99.90;;;;;;7283556;19;20550;-78
2023/04/06 02:18:36;;;;;;;28.53;12.63;;;9.10;99.90;;;;;;7281577;19;20196;-78
2023/04/06 02:21:02;;;;;;;24.93;12.23;;;9.20;99.90;;;;;;7280291;19;20240;-79
2023/04/06 02:23:28;;;;;;;26.10;12.87;;;9.20;99.90;;;;;;7284253;19;20208;-78
2023/04/06 02:25:56;;;;;;;26.60;12.57;;;9.30;99.90;;;;;;7281082;19;20612;-77
2023/04/06 02:28:22;;;;;;;22.10;11.67;;;9.40;99.90;;;;;;7302813;19;20189;-76
2023/04/06 02:30:47;;;;;;;22.40;11.93;;;9.50;99.90;;;;;;7294083;19;20193;-78
2023/04/06 02:33:14;;;;;;;23.87;12.33;;;9.50;99.90;;;;;;7282126;19;20192;-78
2023/04/06 02:35:45;;;;;;;22.90;11.47;;;9.30;99.90;;;;;;7282677;19;20191;-79
2023/04/06 02:38:11;;;;;;;24.37;12.17;;;9.30;99.90;;;;;;7280652;19;20189;-79
2023/04/06 02:40:37;;;;;;;23.40;11.77;;;9.30;99.90;;;;;;7282106;19;20216;-78
2023/04/06 02:43:29;;;;;;;23.40;11.60;;;9.00;99.90;;;;;;7185646;19;2004802;-78
2023/04/06 02:46:04;;;;;;;22.63;11.47;;;8.70;99.90;;;;;;7288067;19;20205;-78
2023/04/06 02:48:36;;;;;;;24.10;11.70;;;8.40;99.90;;;;;;7290107;19;20189;-78
2023/04/06 02:51:02;;;;;;;24.17;11.37;;;8.30;99.90;;;;;;7289269;19;20685;-76
2023/04/06 02:53:27;;;;;;;23.57;11.17;;;8.20;99.90;;;;;;7293166;19;20198;-78
2023/04/06 02:55:53;;;;;;;23.67;11.87;;;8.10;99.90;;;;;;7295912;19;20184;-78
2023/04/06 02:58:19;;;;;;;24.70;10.90;;;8.20;99.90;;;;;;7310600;19;20600;-78
2023/04/06 03:00:51;;;;;;;21.13;11.20;;;8.10;99.90;;;;;;7289918;19;20216;-78
2023/04/06 03:03:20;;;;;;;23.77;11.43;;;8.10;99.90;;;;;;7288859;19;20216;-78
2023/04/06 03:05:47;;;;;;;22.73;11.73;;;8.10;99.90;;;;;;7287632;19;20571;-78
2023/04/06 03:08:15;;;;;;;26.03;11.57;;;8.20;99.90;;;;;;7289977;19;20195;-78
2023/04/06 03:10:43;;;;;;;24.77;11.97;;;8.20;99.90;;;;;;7286037;19;20710;-80
2023/04/06 03:13:09;;;;;;;24.00;12.07;;;8.10;99.90;;;;;;7288601;19;20196;-79
2023/04/06 03:15:47;;;;;;;24.47;11.43;;;8.20;99.90;;;;;;7289394;19;20564;-78
2023/04/06 03:18:21;;;;;;;26.27;11.70;;;8.20;99.90;;;;;;7287810;19;20196;-78
2023/04/06 03:20:47;;;;;;;24.00;12.07;;;8.20;99.90;;;;;;7288102;19;20782;-78
2023/04/06 03:23:15;;;;;;;23.40;12.17;;;8.10;99.90;;;;;;7286873;19;20186;-78
2023/04/06 03:25:42;;;;;;;24.00;11.77;;;8.30;99.90;;;;;;7287379;19;20217;-79
2023/04/06 03:28:12;;;;;;;25.83;12.27;;;8.30;99.90;;;;;;7288276;19;20676;-78
2023/04/06 03:30:48;;;;;;;23.40;12.27;;;8.50;99.90;;;;;;7288626;19;20205;-78
2023/04/06 03:33:18;;;;;;;20.83;11.57;;;8.50;99.90;;;;;;7288326;19;20182;-78
2023/04/06 03:35:51;;;;;;;21.50;11.77;;;8.60;99.90;;;;;;7288592;19;20293;-78
2023/04/06 03:38:18;;;;;;;24.03;12.50;;;8.80;99.90;;;;;;7288114;19;20196;-78
2023/04/06 03:40:43;;;;;;;23.93;12.90;;;8.90;99.90;;;;;;7287648;19;20174;-78
2023/04/06 03:43:09;;;;;;;27.17;12.43;;;9.00;99.90;;;;;;7287904;19;20548;-79
2023/04/06 03:45:37;;;;;;;27.13;13.87;;;9.00;99.90;;;;;;7287717;19;20551;-80
2023/04/06 03:48:05;;;;;;;26.77;13.33;;;9.10;99.90;;;;;;7288172;19;20192;-78
2023/04/06 03:50:34;;;;;;;25.50;13.50;;;9.20;99.90;;;;;;7284015;19;20191;-78
2023/04/06 03:53:02;;;;;;;25.37;13.30;;;9.20;99.90;;;;;;7283628;19;20200;-78
2023/04/06 03:55:28;;;;;;;26.07;13.43;;;9.30;99.90;;;;;;7287977;19;20196;-78
2023/04/06 03:57:55;;;;;;;24.63;13.80;;;9.30;99.90;;;;;;7286694;19;20756;-78
2023/04/06 04:00:21;;;;;;;30.67;13.07;;;9.40;99.90;;;;;;7309164;19;20173;-79
2023/04/06 04:02:47;;;;;;;22.07;13.00;;;9.50;99.90;;;;;;7286145;19;20192;-78
2023/04/06 04:05:13;;;;;;;26.80;13.90;;;9.60;99.90;;;;;;7286572;19;20526;-78
2023/04/06 04:07:39;;;;;;;24.27;13.30;;;9.70;99.90;;;;;;7287189;19;20268;-79
2023/04/06 04:10:06;;;;;;;24.80;13.00;;;9.70;99.90;;;;;;7286693;19;20189;-78
2023/04/06 04:12:32;;;;;;;25.40;13.33;;;9.80;99.90;;;;;;7287498;19;20180;-79
2023/04/06 04:14:58;;;;;;;28.20;13.93;;;9.80;99.90;;;;;;7287727;19;20192;-79
2023/04/06 04:17:24;;;;;;;26.10;13.57;;;9.80;99.90;;;;;;7285828;19;20181;-78
2023/04/06 04:19:50;;;;;;;27.17;13.80;;;9.80;99.90;;;;;;7307460;19;20531;-79
2023/04/06 04:22:16;;;;;;;28.37;14.87;;;9.80;99.90;;;;;;7287472;19;20189;-79
2023/04/06 04:24:43;;;;;;;25.70;14.20;;;9.80;99.90;;;;;;7284891;19;20187;-78
2023/04/06 04:27:09;;;;;;;26.67;14.40;;;9.90;99.90;;;;;;7285223;19;20289;-79
2023/04/06 04:29:35;;;;;;;28.37;14.83;;;9.90;99.90;;;;;;7286095;19;20208;-78
2023/04/06 04:32:05;;;;;;;25.93;14.47;;;9.90;99.90;;;;;;7286588;19;20190;-79
2023/04/06 04:34:31;;;;;;;26.07;14.60;;;9.90;99.90;;;;;;7285763;19;20215;-78
2023/04/06 04:36:57;;;;;;;24.83;14.33;;;9.90;99.90;;;;;;7286195;19;20192;-78
2023/04/06 04:39:35;;;;;;;25.43;14.77;;;9.80;99.90;;;;;;7286317;19;20677;-78
2023/04/06 04:42:05;;;;;;;25.23;14.23;;;9.80;99.90;;;;;;7287275;19;20214;-78
2023/04/06 04:44:33;;;;;;;26.87;15.13;;;9.80;99.90;;;;;;7285755;19;20192;-78
2023/04/06 04:46:59;;;;;;;24.40;13.90;;;9.90;99.90;;;;;;7284828;19;20294;-78
2023/04/06 04:49:35;;;;;;;26.07;14.23;;;9.80;99.90;;;;;;7286711;19;20193;-78
2023/04/06 04:52:02;;;;;;;25.83;13.90;;;9.80;99.90;;;;;;7283950;19;20193;-77
2023/04/06 04:54:41;;;;;;;24.70;14.37;;;9.80;99.90;;;;;;7286104;19;20224;-78
2023/04/06 04:57:11;;;;;;;24.67;14.87;;;9.90;99.90;;;;;;7282707;19;20197;-78
2023/04/06 04:59:43;;;;;;;25.90;14.30;;;9.90;99.90;;;;;;7283476;19;20873;-79
2023/04/06 05:02:17;;;;;;;27.77;14.80;;;9.90;99.90;;;;;;7285117;19;20574;-79
2023/04/06 05:04:55;;;;;;;26.73;14.53;;;9.90;99.90;;;;;;7260333;19;20629;-78
2023/04/06 05:07:24;;;;;;;28.60;14.20;;;10.00;99.90;;;;;;7289662;19;20659;-78
2023/04/06 05:09:52;;;;;;;28.27;14.53;;;10.00;99.90;;;;;;7307561;19;20693;-78
2023/04/06 05:12:20;;;;;;;29.57;15.23;;;10.10;99.90;;;;;;7284272;19;20190;-79
2023/04/06 05:14:54;;;;;;;26.87;14.20;;;10.10;99.90;;;;;;7263566;19;20182;-78
2023/04/06 05:17:22;;;;;;;28.43;15.80;;;10.20;99.90;;;;;;7306560;19;20367;-79
2023/04/06 05:19:49;;;;;;;25.43;14.77;;;10.20;99.90;;;;;;7284353;19;20196;-79
2023/04/06 05:22:21;;;;;;;28.47;15.57;;;10.20;99.90;;;;;;7286403;19;20198;-78
2023/04/06 05:24:55;;;;;;;31.00;14.77;;;10.20;99.90;;;;;;7262384;19;20202;-78
2023/04/06 05:27:21;;;;;;;29.10;14.57;;;10.30;99.90;;;;;;7306254;19;20539;-78
2023/04/06 05:29:48;;;;;;;30.17;15.50;;;10.20;99.90;;;;;;7285301;19;20561;-79
2023/04/06 05:32:15;;;;;;;29.83;14.60;;;10.20;99.90;;;;;;7283160;19;20190;-80
2023/04/06 05:34:41;;;;;;;28.47;15.77;;;10.10;99.90;;;;;;7285320;19;20647;-78
2023/04/06 05:37:07;;;;;;;29.80;15.87;;;10.10;99.90;;;;;;7285081;19;20194;-79
2023/04/06 05:39:32;;;;;;;27.17;15.10;;;10.20;99.90;;;;;;7283939;19;20768;-78
2023/04/06 05:42:03;;;;;;;29.10;15.77;;;10.20;99.90;;;;;;7284998;19;20288;-78
2023/04/06 05:44:49;;;;;;;31.50;16.17;;;10.30;99.90;;;;;;7284320;19;20274;-78
2023/04/06 05:47:16;;;;;;;29.53;15.60;;;10.30;99.90;;;;;;7283610;19;20186;-78
2023/04/06 05:49:44;;;;;;;31.37;15.30;;;10.20;99.90;;;;;;7284360;19;20198;-78
2023/04/06 05:52:17;;;;;;;28.83;16.13;;;10.30;99.90;;;;;;7282775;19;20192;-78
2023/04/06 05:54:46;;;;;;;30.00;15.33;;;10.40;99.90;;;;;;7284436;19;20195;-79
2023/04/06 05:57:12;;;;;;;27.83;15.27;;;10.50;99.90;;;;;;7283573;19;20188;-78
2023/04/06 05:59:39;;;;;;;33.23;15.87;;;10.50;99.90;;;;;;7281444;19;20654;-78
2023/04/06 06:02:05;;;;;;;29.63;15.50;;;10.50;99.90;;;;;;7282384;19;20689;-78
2023/04/06 06:04:34;;;;;;;33.80;16.20;;;10.50;99.90;;;;;;7283269;19;20197;-78
2023/04/06 06:07:01;;;;;;;31.67;16.33;;;10.50;99.90;;;;;;7280966;19;20671;-78
2023/04/06 06:09:33;;;;;;;29.60;16.87;;;10.50;99.90;;;;;;7283996;19;20250;-78
2023/04/06 06:12:14;;;;;;;31.80;17.13;;;10.50;99.90;;;;;;7280757;19;20202;-78
2023/04/06 06:14:39;;;;;;;30.73;17.17;;;10.50;99.90;;;;;;7281068;19;20212;-79
2023/04/06 06:17:06;;;;;;;28.53;16.43;;;10.40;99.90;;;;;;7285798;19;20693;-78
2023/04/06 06:19:33;;;;;;;34.57;17.97;;;10.40;99.90;;;;;;7290422;19;20208;-78
2023/04/06 06:22:02;;;;;;;33.47;17.90;;;10.50;99.90;;;;;;7289025;19;20210;-78
2023/04/06 06:24:31;;;;;;;32.97;16.53;;;10.40;99.90;;;;;;7289048;19;20189;-78
2023/04/06 06:26:57;;;;;;;29.43;17.30;;;10.40;99.90;;;;;;7289365;19;20265;-78
2023/04/06 06:29:26;;;;;;;32.83;17.73;;;10.30;99.90;;;;;;7290771;19;20216;-78
2023/04/06 06:31:51;;;;;;;30.50;18.10;;;10.30;99.90;;;;;;7311727;19;20184;-78
2023/04/06 06:34:17;;;;;;;34.77;18.37;;;10.30;99.90;;;;;;7289381;19;20194;-80
2023/04/06 06:36:43;;;;;;;32.47;17.63;;;10.20;99.90;;;;;;7290952;19;20200;-79
2023/04/06 06:39:11;;;;;;;30.90;17.43;;;10.20;99.90;;;;;;7288396;19;20202;-79
2023/04/06 06:41:37;;;;;;;33.77;17.87;;;10.10;99.90;;;;;;7291112;19;20194;-79
2023/04/06 06:44:05;;;;;;;32.47;17.93;;;10.00;99.90;;;;;;7289656;19;20552;-79
2023/04/06 06:46:31;;;;;;;30.43;17.57;;;10.00;99.90;;;;;;7289828;19;20269;-78
2023/04/06 06:48:58;;;;;;;34.20;17.00;;;10.10;99.90;;;;;;7288367;19;20610;-79
2023/04/06 06:51:24;;;;;;;30.17;16.70;;;10.10;99.90;;;;;;7306100;19;20188;-79
2023/04/06 06:53:51;;;;;;;33.10;17.73;;;10.10;99.90;;;;;;7310138;19;20198;-79
2023/04/06 06:56:17;;;;;;;32.83;17.47;;;10.10;99.90;;;;;;7289493;19;20270;-79
2023/04/06 06:58:43;;;;;;;30.90;17.07;;;10.10;99.90;;;;;;7289126;19;20194;-79
2023/04/06 07:01:09;;;;;;;27.30;15.47;;;10.00;99.90;;;;;;7287786;19;20234;-79
2023/04/06 07:03:35;;;;;;;30.63;15.90;;;9.80;99.90;;;;;;7288454;19;20557;-79
2023/04/06 07:06:00;;;;;;;29.70;15.83;;;9.90;99.90;;;;;;7289574;19;20272;-79
2023/04/06 07:08:26;;;;;;;30.93;15.80;;;10.00;99.90;;;;;;7289199;19;20705;-78
2023/04/06 07:10:53;;;;;;;28.10;15.33;;;10.00;99.90;;;;;;7310398;19;20215;-80
2023/04/06 07:13:23;;;;;;;29.10;15.03;;;10.00;99.90;;;;;;7288603;19;20202;-79
2023/04/06 07:15:51;;;;;;;27.87;14.90;;;10.10;99.90;;;;;;7290228;19;20189;-79
2023/04/06 07:18:20;;;;;;;25.37;13.97;;;10.20;99.90;;;;;;7288347;19;20200;-79
2023/04/06 07:20:47;;;;;;;29.73;15.23;;;10.00;99.90;;;;;;7287509;19;20769;-79
2023/04/06 07:23:14;;;;;;;28.47;15.17;;;9.90;99.90;;;;;;7288995;19;21656;-79
2023/04/06 07:25:40;;;;;;;26.40;14.33;;;10.00;99.90;;;;;;7288001;19;20202;-79
2023/04/06 07:28:09;;;;;;;31.23;15.53;;;9.80;99.90;;;;;;7287212;19;20212;-79
2023/04/06 07:30:36;;;;;;;24.50;14.13;;;9.90;99.90;;;;;;7287573;19;20549;-79
2023/04/06 07:33:02;;;;;;;28.47;14.47;;;10.10;99.90;;;;;;7288015;19;20212;-79
2023/04/06 07:35:30;;;;;;;27.57;14.33;;;10.00;99.90;;;;;;7287848;19;20193;-79
2023/04/06 07:37:57;;;;;;;29.03;14.87;;;9.90;99.90;;;;;;7286258;19;20192;-79
2023/04/06 07:40:23;;;;;;;27.53;13.77;;;9.80;99.90;;;;;;7308225;19;20199;-79
2023/04/06 07:42:50;;;;;;;26.70;13.70;;;9.80;99.90;;;;;;7289029;19;20189;-79
2023/04/06 07:45:16;;;;;;;26.53;13.10;;;9.80;99.90;;;;;;7287847;19;20296;-79
2023/04/06 07:47:42;;;;;;;28.20;13.63;;;9.90;99.90;;;;;;7286874;19;20559;-79
2023/04/06 07:50:09;;;;;;;28.13;13.80;;;9.90;99.90;;;;;;7287169;19;20255;-79
2023/04/06 07:52:36;;;;;;;26.47;13.87;;;9.70;99.90;;;;;;7285131;19;20193;-79
2023/04/06 07:55:02;;;;;;;28.67;14.70;;;9.50;99.90;;;;;;7288028;19;20558;-79
2023/04/06 07:57:28;;;;;;;30.30;14.20;;;9.40;99.90;;;;;;7287226;19;20215;-79
2023/04/06 07:59:54;;;;;;;27.03;14.13;;;9.50;99.90;;;;;;7310245;19;20240;-78
2023/04/06 08:02:20;;;;;;;27.27;14.37;;;9.70;99.90;;;;;;7288049;19;20180;-79
2023/04/06 08:04:45;;;;;;;28.30;13.30;;;9.70;99.90;;;;;;7288410;19;20246;-79
2023/04/06 08:07:12;;;;;;;24.43;13.07;;;9.90;99.90;;;;;;7285483;19;20181;-79
2023/04/06 08:09:37;;;;;;;24.77;12.70;;;9.90;99.90;;;;;;7286983;19;20728;-79
2023/04/06 08:12:03;;;;;;;28.23;13.10;;;9.80;99.90;;;;;;7285732;19;20178;-79
2023/04/06 08:14:29;;;;;;;27.53;12.63;;;9.80;99.90;;;;;;7286562;19;20204;-79
2023/04/06 08:16:55;;;;;;;30.10;12.27;;;9.80;99.90;;;;;;7296887;19;20183;-79
2023/04/06 08:19:21;;;;;;;26.60;12.00;;;9.70;99.90;;;;;;7308918;19;20181;-79
2023/04/06 08:21:47;;;;;;;24.60;12.30;;;9.50;99.90;;;;;;7286643;19;20209;-80
2023/04/06 08:24:13;;;;;;;24.83;11.63;;;9.70;99.90;;;;;;7287439;19;20242;-80
2023/04/06 08:26:39;;;;;;;23.00;11.40;;;9.60;99.90;;;;;;7285881;19;20290;-80
2023/04/06 08:29:07;;;;;;;22.60;10.80;;;9.70;99.90;;;;;;7287633;19;20184;-80
2023/04/06 08:31:34;;;;;;;23.63;11.40;;;9.40;99.90;;;;;;7286511;19;20184;-80
2023/04/06 08:34:00;;;;;;;28.30;12.43;;;9.30;99.90;;;;;;7285330;19;20189;-80
2023/04/06 08:36:26;;;;;;;26.07;12.53;;;9.20;99.90;;;;;;7290475;19;20195;-80
2023/04/06 08:38:52;;;;;;;29.00;13.23;;;9.10;99.90;;;;;;7305570;19;20193;-81
2023/04/06 08:41:18;;;;;;;26.17;12.57;;;9.20;99.90;;;;;;7285790;19;20564;-81
2023/04/06 08:43:49;;;;;;;21.97;12.60;;;9.10;99.90;;;;;;7285497;19;20680;-80
2023/04/06 08:46:15;;;;;;;24.63;12.10;;;9.00;99.90;;;;;;7283883;19;20201;-81
2023/04/06 08:48:42;;;;;;;23.47;12.20;;;9.00;99.90;;;;;;7281155;19;20690;-81
2023/04/06 08:51:10;;;;;;;25.37;12.60;;;9.10;99.90;;;;;;7283428;19;20200;-81
2023/04/06 08:53:36;;;;;;;26.73;12.90;;;9.10;99.90;;;;;;7281934;19;20201;-81
2023/04/06 08:56:03;;;;;;;26.20;12.63;;;9.00;99.90;;;;;;7284620;19;20264;-81
2023/04/06 08:58:34;;;;;;;25.00;13.50;;;8.80;99.90;;;;;;7288419;19;20187;-79
2023/04/06 09:01:02;;;;;;;27.40;13.10;;;8.90;99.90;;;;;;7283913;19;20275;-80
2023/04/06 09:03:30;;;;;;;26.97;13.50;;;9.00;99.90;;;;;;7281351;19;20708;-80
2023/04/06 09:05:56;;;;;;;25.50;12.87;;;9.00;99.90;;;;;;7292377;19;20196;-79
2023/04/06 09:08:22;;;;;;;25.97;12.93;;;9.20;99.90;;;;;;7307404;19;20189;-80
2023/04/06 09:10:48;;;;;;;23.73;12.90;;;9.20;99.90;;;;;;7286483;19;20259;-81
2023/04/06 09:13:14;;;;;;;25.83;12.57;;;9.10;99.90;;;;;;7283727;19;20197;-80
2023/04/06 09:15:40;;;;;;;25.17;12.60;;;9.20;99.90;;;;;;7286358;19;20189;-80
2023/04/06 09:18:07;;;;;;;23.13;12.40;;;9.20;99.90;;;;;;7284267;19;20200;-81
2023/04/06 09:20:33;;;;;;;26.23;13.37;;;9.20;99.90;;;;;;7284499;19;20185;-80
2023/04/06 09:22:59;;;;;;;24.10;12.23;;;9.20;99.90;;;;;;7283906;19;20204;-81
2023/04/06 09:25:28;;;;;;;22.20;12.07;;;9.20;99.90;;;;;;7300127;19;20185;-80
2023/04/06 09:28:04;;;;;;;25.33;12.40;;;9.20;99.90;;;;;;7306118;19;20655;-81
2023/04/06 09:30:30;;;;;;;21.63;11.53;;;9.30;99.90;;;;;;7182469;19;2004548;-80
2023/04/06 09:32:57;;;;;;;23.97;11.53;;;9.40;99.90;;;;;;7288165;19;20248;-79
2023/04/06 09:35:26;;;;;;;22.97;11.50;;;9.40;99.90;;;;;;7306586;19;20258;-80
2023/04/06 09:37:52;;;;;;;20.67;9.93;;;9.30;99.90;;;;;;7285871;19;20189;-80
2023/04/06 09:40:19;;;;;;;20.93;11.20;;;9.10;99.90;;;;;;7284538;19;20256;-80
2023/04/06 09:42:46;;;;;;;23.13;11.30;;;9.00;99.90;;;;;;7282905;19;20205;-80
2023/04/06 09:45:13;;;;;;;20.57;11.33;;;9.00;99.90;;;;;;7283981;19;20526;-80
2023/04/06 09:47:42;;;;;;;21.07;10.37;;;8.90;99.90;;;;;;7283984;19;20198;-80
2023/04/06 09:50:10;;;;;;;22.63;10.40;;;8.90;99.90;;;;;;7286432;19;20544;-80
2023/04/06 09:52:39;;;;;;;20.37;9.80;;;9.00;99.90;;;;;;7291680;19;20724;-80
2023/04/06 09:55:07;;;;;;;21.27;10.30;;;8.90;99.90;;;;;;7290597;19;20679;-80
2023/04/06 09:57:59;;;;;;;22.07;10.70;;;8.90;99.90;;;;;;7291092;19;20184;-80
2023/04/06 10:00:26;;;;;;;22.23;10.70;;;9.10;99.90;;;;;;7281719;19;20691;-80
2023/04/06 10:03:19;;;;;;;23.60;11.30;;;9.10;99.90;;;;;;7312966;19;20668;-81
2023/04/06 10:05:58;;;;;;;20.53;10.60;;;9.30;99.90;;;;;;7188852;19;2004627;-80
2023/04/06 10:08:28;;;;;;;23.83;10.80;;;9.40;99.90;;;;;;7291155;19;20189;-80
2023/04/06 10:10:55;;;;;;;19.67;10.63;;;9.40;99.90;;;;;;7291033;19;20213;-78
2023/04/06 10:13:24;;;;;;;21.70;11.13;;;9.50;99.90;;;;;;7291942;19;20656;-80
2023/04/06 10:15:51;;;;;;;19.83;10.50;;;9.60;99.90;;;;;;7291513;19;20188;-80
2023/04/06 10:18:17;;;;;;;19.83;11.03;;;9.70;99.90;;;;;;7289617;19;20614;-80
2023/04/06 10:21:11;;;;;;;20.17;10.97;;;9.70;99.90;;;;;;7289696;19;20342;-80
2023/04/06 10:23:46;;;;;;;20.40;11.70;;;9.80;99.90;;;;;;7188794;19;2004413;-80
2023/04/06 10:26:16;;;;;;;24.73;11.70;;;9.80;99.90;;;;;;7291046;19;20192;-80
2023/04/06 10:28:44;;;;;;;24.60;11.37;;;10.00;99.90;;;;;;7288883;19;20667;-81
2023/04/06 10:31:10;;;;;;;23.00;11.90;;;10.10;99.90;;;;;;7289483;19;20226;-81
2023/04/06 10:33:36;;;;;;;20.20;10.90;;;10.10;99.90;;;;;;7288749;19;20216;-82
2023/04/06 10:36:15;;;;;;;21.87;11.37;;;10.30;99.90;;;;;;7289363;19;20716;-81
2023/04/06 10:38:42;;;;;;;22.33;11.30;;;10.30;99.90;;;;;;7290246;19;20213;-82
2023/04/06 10:41:11;;;;;;;20.50;11.10;;;10.20;99.90;;;;;;7289360;19;20652;-81
2023/04/06 10:43:40;;;;;;;22.10;11.23;;;10.10;99.90;;;;;;7289755;19;20200;-81
2023/04/06 10:46:09;;;;;;;20.20;11.27;;;9.90;99.90;;;;;;7286578;19;20213;-80
2023/04/06 10:48:47;;;;;;;22.13;11.43;;;9.80;99.90;;;;;;7289949;19;20193;-80
2023/04/06 10:51:15;;;;;;;20.63;11.37;;;9.80;99.90;;;;;;7288570;19;20191;-81
2023/04/06 10:53:49;;;;;;;20.67;11.73;;;10.00;99.90;;;;;;7288392;19;20201;-81
2023/04/06 10:56:16;;;;;;;23.90;12.30;;;10.10;99.90;;;;;;7289230;19;20266;-80
2023/04/06 10:58:48;;;;;;;22.90;11.87;;;10.00;99.90;;;;;;7287560;19;20189;-81
2023/04/06 11:01:16;;;;;;;21.83;12.23;;;10.00;99.90;;;;;;7286467;19;20193;-81
2023/04/06 11:03:46;;;;;;;20.13;11.10;;;10.10;99.90;;;;;;7287073;19;20679;-81
2023/04/06 11:06:23;;;;;;;17.87;10.20;;;10.10;99.90;;;;;;7287954;19;20548;-81
2023/04/06 11:08:50;;;;;;;17.30;10.80;;;10.20;99.90;;;;;;7289478;19;20191;-81
2023/04/06 11:11:18;;;;;;;19.07;11.03;;;10.30;99.90;;;;;;7288283;19;20178;-81
2023/04/06 11:13:45;;;;;;;23.27;12.13;;;10.40;99.90;;;;;;7286921;19;20189;-81
2023/04/06 11:16:22;;;;;;;21.30;11.67;;;10.50;99.90;;;;;;7289975;19;20189;-81
2023/04/06 11:18:52;;;;;;;22.50;12.20;;;10.40;99.90;;;;;;7288482;19;20181;-81
2023/04/06 11:21:48;;;;;;;21.97;11.90;;;10.10;99.90;;;;;;7287842;19;20185;-80
2023/04/06 11:24:24;;;;;;;19.57;10.90;;;10.20;99.90;;;;;;7186398;19;2004372;-81
2023/04/06 11:26:58;;;;;;;20.40;12.07;;;10.30;99.90;;;;;;7288716;19;20189;-80
2023/04/06 11:29:26;;;;;;;20.97;12.23;;;10.40;99.90;;;;;;7287363;19;20548;-81
2023/04/06 11:32:04;;;;;;;22.73;12.73;;;10.60;99.90;;;;;;7289593;19;20189;-80
2023/04/06 11:34:35;;;;;;;21.87;11.07;;;10.90;99.90;;;;;;7184486;19;2004593;-80
2023/04/06 11:37:06;;;;;;;21.83;12.10;;;10.90;99.90;;;;;;7287581;19;20193;-80
2023/04/06 11:39:37;;;;;;;20.60;11.47;;;10.70;99.90;;;;;;7287059;19;20621;-80
2023/04/06 11:42:03;;;;;;;20.23;12.23;;;10.70;99.90;;;;;;7289660;19;20224;-80
2023/04/06 11:44:38;;;;;;;23.70;12.40;;;10.50;99.90;;;;;;7287917;19;20526;-80
2023/04/06 11:47:06;;;;;;;23.53;13.17;;;10.70;99.90;;;;;;7286652;19;20189;-80
2023/04/06 11:49:33;;;;;;;22.37;13.07;;;10.70;99.90;;;;;;7287912;19;20185;-80
2023/04/06 11:52:00;;;;;;;25.90;13.83;;;10.80;99.90;;;;;;7285369;19;20618;-80
2023/04/06 11:54:45;;;;;;;22.57;12.80;;;10.80;99.90;;;;;;7292249;19;20194;-80
2023/04/06 11:57:11;;;;;;;21.70;13.50;;;10.80;99.90;;;;;;7287261;19;20198;-80
2023/04/06 11:59:37;;;;;;;21.97;13.50;;;11.00;99.90;;;;;;7287517;19;20192;-80
2023/04/06 12:02:03;;;;;;;21.67;12.17;;;10.90;99.90;;;;;;7288479;19;20193;-80
2023/04/06 12:04:30;;;;;;;20.87;12.53;;;10.80;99.90;;;;;;7290853;19;20202;-80
2023/04/06 12:06:56;;;;;;;21.03;12.03;;;10.80;99.90;;;;;;7299085;19;20186;-80
2023/04/06 12:09:22;;;;;;;22.50;12.90;;;10.90;99.90;;;;;;7312381;19;20219;-80
2023/04/06 12:11:47;;;;;;;23.57;13.17;;;10.50;99.90;;;;;;7287770;19;20185;-79
2023/04/06 12:14:13;;;;;;;21.10;12.40;;;10.40;99.90;;;;;;7283725;19;20192;-80
2023/04/06 12:16:39;;;;;;;21.17;13.27;;;10.50;99.90;;;;;;7287156;19;20192;-80
2023/04/06 12:19:05;;;;;;;22.93;13.07;;;10.50;99.90;;;;;;7285377;19;20672;-80
2023/04/06 12:21:33;;;;;;;21.90;12.03;;;10.60;99.90;;;;;;7286633;19;20196;-80
2023/04/06 12:24:00;;;;;;;22.97;13.37;;;10.50;99.90;;;;;;7286679;19;20580;-80
2023/04/06 12:26:27;;;;;;;20.90;12.83;;;10.20;99.90;;;;;;7293116;19;20185;-79
2023/04/06 12:28:53;;;;;;;23.37;13.77;;;10.10;99.90;;;;;;7309055;19;20192;-80
2023/04/06 12:31:20;;;;;;;23.80;14.00;;;10.20;99.90;;;;;;7286918;19;20182;-80
2023/04/06 12:33:50;;;;;;;24.77;14.63;;;10.30;99.90;;;;;;7284961;19;20588;-80
2023/04/06 12:36:20;;;;;;;22.07;12.63;;;10.30;99.90;;;;;;7285701;19;20928;-80
2023/04/06 12:38:51;;;;;;;21.00;12.53;;;10.30;99.90;;;;;;7285625;19;20182;-80
2023/04/06 12:41:19;;;;;;;23.90;14.27;;;10.10;99.90;;;;;;7287174;19;20255;-80